Time;durP1;ratioP1;P1;durP2;ratioP2;P2;SDS_P1;SDS_P2;PMS_P1;PMS_P2;Temp;Humidity;BMP_temperature;BMP_pressure;BME280_temperature;BME280_humidity;BME280_pressure;Samples;Min_cycle;Max_cycle;Signal;HPM_P1;HPM_P2
2023/01/08 00:03:33;;;;;;;45.9;29.5;;;;;;;2.4;90.2;98830;;;;
2023/01/08 00:13:33;;;;;;;44.9;29.6;;;;;;;2.5;89.9;98810;;;;
2023/01/08 00:23:33;;;;;;;44.9;29.6;;;;;;;2.3;89.3;98800;;;;
2023/01/08 00:34:33;;;;;;;38;25.4;;;;;;;2.1;88.6;98790;;;;
2023/01/08 00:45:33;;;;;;;38;25.4;;;;;;;1.8;88.4;98790;;;;
2023/01/08 00:55:33;;;;;;;38;25.4;;;;;;;1.5;88.1;98790;;;;
2023/01/08 01:06:33;;;;;;;34.3;20.3;;;;;;;1.3;88.2;98790;;;;
2023/01/08 01:16:35;;;;;;;34.3;20.3;;;;;;;1.1;88.2;98790;;;;
2023/01/08 01:26:33;;;;;;;34.3;20.3;;;;;;;0.9;88.7;98780;;;;
2023/01/08 01:36:33;;;;;;;25.8;14.4;;;;;;;0.8;88.9;98770;;;;
2023/01/08 01:47:33;;;;;;;25.8;14.4;;;;;;;0.7;88.9;98760;;;;
2023/01/08 01:57:33;;;;;;;25.8;14.4;;;;;;;0.6;89;98740;;;;
2023/01/08 02:08:33;;;;;;;24.3;15.1;;;;;;;0.4;88.8;98730;;;;
2023/01/08 02:19:33;;;;;;;24.3;15.1;;;;;;;0.3;89;98720;;;;
2023/01/08 02:30:33;;;;;;;24.3;15.1;;;;;;;0.3;89.1;98710;;;;
2023/01/08 02:41:33;;;;;;;26.6;16;;;;;;;0.1;89;98700;;;;
2023/01/08 02:51:33;;;;;;;26.6;16;;;;;;;0.1;89.3;98700;;;;
2023/01/08 03:01:33;;;;;;;26.6;16;;;;;;;0;89.5;98700;;;;
2023/01/08 03:11:33;;;;;;;26.9;17.5;;;;;;;-0.1;89.6;98710;;;;
2023/01/08 03:21:33;;;;;;;26.9;17.5;;;;;;;0;89.7;98690;;;;
2023/01/08 03:31:34;;;;;;;26.9;17.5;;;;;;;-0.1;89.9;98690;;;;
2023/01/08 03:42:33;;;;;;;27;16.7;;;;;;;-0.2;90.1;98680;;;;
2023/01/08 03:53:33;;;;;;;27;16.7;;;;;;;-0.3;90.2;98660;;;;
2023/01/08 04:03:33;;;;;;;23;14;;;;;;;-0.3;90.3;98650;;;;
2023/01/08 04:13:33;;;;;;;23;14;;;;;;;-0.4;90.1;98650;;;;
2023/01/08 04:24:33;;;;;;;23;14;;;;;;;-0.5;90;98650;;;;
2023/01/08 04:34:33;;;;;;;20.3;12.4;;;;;;;-0.5;89.9;98650;;;;
2023/01/08 04:45:33;;;;;;;20.3;12.4;;;;;;;-0.5;89.9;98640;;;;
2023/01/08 04:55:33;;;;;;;20.3;12.4;;;;;;;-0.6;89.9;98650;;;;
2023/01/08 05:06:33;;;;;;;21.9;13.5;;;;;;;-0.7;89.8;98640;;;;
2023/01/08 05:17:33;;;;;;;21.9;13.5;;;;;;;-0.8;89.9;98640;;;;
2023/01/08 05:27:33;;;;;;;21.9;13.5;;;;;;;-0.8;90;98630;;;;
2023/01/08 05:38:33;;;;;;;19.8;12.2;;;;;;;-0.9;89.9;98610;;;;
2023/01/08 05:48:33;;;;;;;19.8;12.2;;;;;;;-1;90;98600;;;;
2023/01/08 05:59:33;;;;;;;19.8;12.2;;;;;;;-1;90.1;98600;;;;
2023/01/08 06:09:33;;;;;;;17.8;10.6;;;;;;;-1;90.2;98590;;;;
2023/01/08 06:20:33;;;;;;;17.8;10.6;;;;;;;-1.1;90.1;98590;;;;
2023/01/08 06:31:33;;;;;;;17.8;10.6;;;;;;;-1.1;89.9;98610;;;;
2023/01/08 06:42:33;;;;;;;19.3;11.2;;;;;;;-1.1;89.9;98590;;;;
2023/01/08 06:53:33;;;;;;;19.3;11.2;;;;;;;-1.1;89.8;98600;;;;
2023/01/08 07:04:33;;;;;;;18.9;11.1;;;;;;;-1.1;89.7;98610;;;;
2023/01/08 07:15:33;;;;;;;18.9;11.1;;;;;;;-0.9;89.8;98600;;;;
2023/01/08 07:25:33;;;;;;;18.9;11.1;;;;;;;-0.8;89.8;98600;;;;
2023/01/08 07:36:33;;;;;;;20.6;12.2;;;;;;;-0.6;89.9;98570;;;;
2023/01/08 07:46:33;;;;;;;20.6;12.2;;;;;;;-0.4;89.7;98570;;;;
2023/01/08 07:57:33;;;;;;;20.6;12.2;;;;;;;-0.2;90;98560;;;;
2023/01/08 08:07:34;;;;;;;20.7;13.1;;;;;;;0;90;98550;;;;
2023/01/08 08:18:33;;;;;;;20.7;13.1;;;;;;;0.3;90;98540;;;;
2023/01/08 08:28:33;;;;;;;20.7;13.1;;;;;;;0.7;90.2;98520;;;;
2023/01/08 08:38:33;;;;;;;23.6;13.2;;;;;;;0.9;90.1;98500;;;;
2023/01/08 08:49:35;;;;;;;23.6;13.2;;;;;;;1.4;90.4;98490;;;;
2023/01/08 08:59:33;;;;;;;23.6;13.2;;;;;;;1.9;90.3;98490;;;;
2023/01/08 09:10:34;;;;;;;20.6;12.1;;;;;;;2.5;90.1;98490;;;;
2023/01/08 09:20:33;;;;;;;20.6;12.1;;;;;;;3;89.8;98480;;;;
2023/01/08 09:30:33;;;;;;;20.6;12.1;;;;;;;3.4;89.4;98460;;;;
2023/01/08 09:40:33;;;;;;;18.8;11.5;;;;;;;3.6;88.8;98460;;;;
2023/01/08 09:50:34;;;;;;;18.8;11.5;;;;;;;3.9;88.4;98430;;;;
2023/01/08 10:00:33;;;;;;;18.8;11.5;;;;;;;4.2;87.8;98430;;;;
2023/01/08 10:11:33;;;;;;;20.8;14.3;;;;;;;4.5;87.6;98400;;;;
2023/01/08 10:22:33;;;;;;;20.8;14.3;;;;;;;4.6;87.4;98380;;;;
2023/01/08 10:32:33;;;;;;;24.1;17.6;;;;;;;4.7;86.9;98370;;;;
2023/01/08 10:42:33;;;;;;;24.1;17.6;;;;;;;5.1;86.8;98350;;;;
2023/01/08 10:53:33;;;;;;;24.1;17.6;;;;;;;5.4;86.1;98320;;;;
2023/01/08 11:04:33;;;;;;;20.6;16.6;;;;;;;5.4;85.3;98300;;;;
2023/01/08 11:15:33;;;;;;;20.6;16.6;;;;;;;5.6;85.1;98300;;;;
2023/01/08 11:26:33;;;;;;;20.6;16.6;;;;;;;5.9;84.2;98280;;;;
2023/01/08 11:36:33;;;;;;;22;16.8;;;;;;;5.9;83.8;98260;;;;
2023/01/08 11:47:33;;;;;;;22;16.8;;;;;;;6.4;82.7;98260;;;;
2023/01/08 11:57:33;;;;;;;22;16.8;;;;;;;6.6;82.1;98250;;;;
2023/01/08 12:08:33;;;;;;;20.2;16.8;;;;;;;7.1;81.1;98240;;;;
2023/01/08 12:19:33;;;;;;;20.2;16.8;;;;;;;7.2;80.4;98220;;;;
2023/01/08 12:29:33;;;;;;;20.2;16.8;;;;;;;7.3;80.7;98200;;;;
2023/01/08 12:40:33;;;;;;;21;15.7;;;;;;;7.4;79.4;98190;;;;
2023/01/08 12:51:33;;;;;;;21;15.7;;;;;;;7.5;79.6;98190;;;;
2023/01/08 13:02:33;;;;;;;18.5;13.9;;;;;;;7.5;79.5;98170;;;;
2023/01/08 13:13:33;;;;;;;18.5;13.9;;;;;;;7.8;78.8;98170;;;;
2023/01/08 13:23:33;;;;;;;18.5;13.9;;;;;;;7.9;78.7;98180;;;;
2023/01/08 13:34:33;;;;;;;22.4;14.2;;;;;;;8;77.8;98180;;;;
2023/01/08 13:44:33;;;;;;;22.4;14.2;;;;;;;7.8;78.3;98190;;;;
2023/01/08 13:54:34;;;;;;;22.4;14.2;;;;;;;7.7;78.5;98190;;;;
2023/01/08 14:05:33;;;;;;;17.6;13.5;;;;;;;7.4;78.9;98200;;;;
2023/01/08 14:16:33;;;;;;;17.6;13.5;;;;;;;7;79.2;98210;;;;
2023/01/08 14:26:34;;;;;;;17.6;13.5;;;;;;;6.5;79.6;98210;;;;
2023/01/08 14:37:34;;;;;;;70.1;48.8;;;;;;;6;80.5;98210;;;;
2023/01/08 14:48:39;;;;;;;70.1;48.8;;;;;;;5.6;82.1;98200;;;;
2023/01/08 14:58:34;;;;;;;70.1;48.8;;;;;;;5.2;82.3;98200;;;;
2023/01/08 15:09:33;;;;;;;19.6;14.5;;;;;;;4.8;83.6;98200;;;;
2023/01/08 15:19:34;;;;;;;19.6;14.5;;;;;;;4.4;84;98200;;;;
2023/01/08 15:30:33;;;;;;;19.6;14.5;;;;;;;4.1;84.8;98200;;;;
2023/01/08 15:52:33;;;;;;;19.7;14.1;;;;;;;3.7;86.8;98180;;;;
2023/01/08 16:03:33;;;;;;;25.3;17.3;;;;;;;3.4;86.9;98160;;;;
2023/01/08 16:14:36;;;;;;;25.3;17.3;;;;;;;3.3;87.6;98150;;;;
2023/01/08 16:24:34;;;;;;;25.3;17.3;;;;;;;3.2;88.1;98150;;;;
2023/01/08 16:34:33;;;;;;;30.6;19.1;;;;;;;3.1;88.3;98150;;;;
2023/01/08 16:45:33;;;;;;;30.6;19.1;;;;;;;3.1;89.2;98140;;;;
2023/01/08 16:55:33;;;;;;;30.6;19.1;;;;;;;2.9;89.1;98140;;;;
2023/01/08 17:05:33;;;;;;;23.9;16.5;;;;;;;2.7;88.5;98140;;;;
2023/01/08 17:15:33;;;;;;;23.9;16.5;;;;;;;2.6;88.6;98140;;;;
2023/01/08 17:26:33;;;;;;;23.9;16.5;;;;;;;2.4;88.5;98160;;;;
2023/01/08 17:36:34;;;;;;;43.7;26.5;;;;;;;2.3;88.6;98160;;;;
2023/01/08 17:46:34;;;;;;;43.7;26.5;;;;;;;2.3;88.8;98150;;;;
2023/01/08 17:57:33;;;;;;;43.7;26.5;;;;;;;2.3;89.4;98150;;;;
2023/01/08 18:07:33;;;;;;;35.7;21.4;;;;;;;2.3;89.7;98150;;;;
2023/01/08 18:17:34;;;;;;;35.7;21.4;;;;;;;2.4;90.1;98150;;;;
2023/01/08 18:28:33;;;;;;;35.7;21.4;;;;;;;2.4;90.4;98150;;;;
2023/01/08 18:38:33;;;;;;;43;24.4;;;;;;;2.4;90.4;98150;;;;
2023/01/08 18:48:34;;;;;;;43;24.4;;;;;;;2.4;90.3;98140;;;;
2023/01/08 18:59:33;;;;;;;43;24.4;;;;;;;2.3;90.2;98130;;;;
2023/01/08 19:10:34;;;;;;;43.9;28.5;;;;;;;2.2;90;98110;;;;
2023/01/08 19:20:33;;;;;;;43.9;28.5;;;;;;;2.1;90.1;98090;;;;
2023/01/08 19:31:33;;;;;;;51.3;33.8;;;;;;;2.1;90;98070;;;;
2023/01/08 19:51:34;;;;;;;51.3;33.8;;;;;;;2.3;90.1;98040;;;;
2023/01/08 20:01:33;;;;;;;52.4;30.5;;;;;;;2.4;90.7;98040;;;;
2023/01/08 20:12:33;;;;;;;52.4;30.5;;;;;;;2.3;90.7;98030;;;;
2023/01/08 20:23:35;;;;;;;52.4;30.5;;;;;;;2.2;90.2;98020;;;;
2023/01/08 20:34:34;;;;;;;60;37.6;;;;;;;2.2;89.8;98010;;;;
2023/01/08 20:45:34;;;;;;;60;37.6;;;;;;;2.2;89.6;98010;;;;
2023/01/08 20:56:36;;;;;;;60;37.6;;;;;;;2.1;89.8;97990;;;;
2023/01/08 21:07:34;;;;;;;58.3;40.6;;;;;;;2.4;90.1;97970;;;;
2023/01/08 21:17:33;;;;;;;58.3;40.6;;;;;;;2.6;90.4;97950;;;;
2023/01/08 21:27:35;;;;;;;58.3;40.6;;;;;;;2.7;90.2;97940;;;;
2023/01/08 21:37:35;;;;;;;60.9;43.7;;;;;;;2.8;90;97920;;;;
2023/01/08 21:47:34;;;;;;;60.9;43.7;;;;;;;2.9;89.9;97930;;;;
2023/01/08 21:58:34;;;;;;;60.9;43.7;;;;;;;2.9;89.5;97920;;;;
2023/01/08 22:09:34;;;;;;;48.8;34.4;;;;;;;3.1;89.8;97900;;;;
2023/01/08 22:20:34;;;;;;;48.8;34.4;;;;;;;3;89.9;97880;;;;
2023/01/08 22:30:34;;;;;;;46;35;;;;;;;3.1;89.8;97880;;;;
2023/01/08 22:41:34;;;;;;;46;35;;;;;;;3.3;89.9;97870;;;;
2023/01/08 22:51:34;;;;;;;46;35;;;;;;;3.3;90.2;97850;;;;
2023/01/08 23:01:34;;;;;;;40.7;29.1;;;;;;;3.5;90.2;97840;;;;
2023/01/08 23:12:34;;;;;;;40.7;29.1;;;;;;;3.7;90.1;97820;;;;
2023/01/08 23:22:34;;;;;;;40.7;29.1;;;;;;;3.7;89.4;97800;;;;
2023/01/08 23:33:34;;;;;;;36.1;24.5;;;;;;;3.7;89;97790;;;;
2023/01/08 23:44:34;;;;;;;36.1;24.5;;;;;;;3.7;89;97770;;;;
2023/01/08 23:54:34;;;;;;;36.1;24.5;;;;;;;3.6;88.4;97760;;;;
